LFPM 030530Z AUTO 05006KT 340V090 9999 OVC015 03/01 Q1016

Sorties Club
Le Touquet Paris Plage

Remerciements a Kevin et Valentin pour l'organisation de cette sortie et aux instructeurs pour l'encadrement



Le Briefing photo Les Avions au Parking photo Sur le Tarmac du Touquet photo
Sur le Tarmac du Touquet photo Le Groupe photo Au Restaurant photo